sensor_id;sensor_type;location;lat;lon;timestamp;pressure;altitude;pressure_sealevel;temperature;humidity
61436;BME280;47304;47.456;19.160;2023-01-30T00:01:38;100874.51;;;-3.09;66.84
61436;BME280;47304;47.456;19.160;2023-01-30T00:04:05;100868.22;;;-3.08;66.90
61436;BME280;47304;47.456;19.160;2023-01-30T00:06:31;100861.64;;;-3.09;66.88
61436;BME280;47304;47.456;19.160;2023-01-30T00:08:58;100863.06;;;-3.10;66.87
61436;BME280;47304;47.456;19.160;2023-01-30T00:11:25;100861.48;;;-3.14;67.03
61436;BME280;47304;47.456;19.160;2023-01-30T00:13:51;100860.84;;;-3.19;67.03
61436;BME280;47304;47.456;19.160;2023-01-30T00:16:18;100857.89;;;-3.22;67.11
61436;BME280;47304;47.456;19.160;2023-01-30T00:18:44;100853.23;;;-3.25;67.29
61436;BME280;47304;47.456;19.160;2023-01-30T00:21:13;100848.80;;;-3.31;67.39
61436;BME280;47304;47.456;19.160;2023-01-30T00:23:39;100850.54;;;-3.36;67.51
61436;BME280;47304;47.456;19.160;2023-01-30T00:26:06;100855.25;;;-3.40;67.59
61436;BME280;47304;47.456;19.160;2023-01-30T00:28:35;100850.30;;;-3.45;67.79
61436;BME280;47304;47.456;19.160;2023-01-30T00:31:02;100848.44;;;-3.50;67.93
61436;BME280;47304;47.456;19.160;2023-01-30T00:33:29;100850.10;;;-3.53;68.09
61436;BME280;47304;47.456;19.160;2023-01-30T00:35:56;100848.21;;;-3.56;68.28
61436;BME280;47304;47.456;19.160;2023-01-30T00:38:23;100844.55;;;-3.60;68.43
61436;BME280;47304;47.456;19.160;2023-01-30T00:40:50;100844.52;;;-3.63;68.62
61436;BME280;47304;47.456;19.160;2023-01-30T00:43:18;100846.21;;;-3.64;68.69
61436;BME280;47304;47.456;19.160;2023-01-30T00:45:46;100845.69;;;-3.64;68.79
61436;BME280;47304;47.456;19.160;2023-01-30T00:48:12;100842.84;;;-3.65;68.79
61436;BME280;47304;47.456;19.160;2023-01-30T00:50:39;100842.75;;;-3.67;68.99
61436;BME280;47304;47.456;19.160;2023-01-30T00:53:05;100842.50;;;-3.68;68.92
61436;BME280;47304;47.456;19.160;2023-01-30T00:55:32;100846.24;;;-3.71;69.01
61436;BME280;47304;47.456;19.160;2023-01-30T00:57:58;100843.94;;;-3.75;69.12
61436;BME280;47304;47.456;19.160;2023-01-30T01:00:25;100848.42;;;-3.77;69.20
61436;BME280;47304;47.456;19.160;2023-01-30T01:02:51;100841.79;;;-3.79;69.23
61436;BME280;47304;47.456;19.160;2023-01-30T01:05:18;100837.62;;;-3.80;69.43
61436;BME280;47304;47.456;19.160;2023-01-30T01:07:45;100834.27;;;-3.79;69.47
61436;BME280;47304;47.456;19.160;2023-01-30T01:10:12;100830.86;;;-3.79;69.57
61436;BME280;47304;47.456;19.160;2023-01-30T01:12:38;100827.04;;;-3.77;69.59
61436;BME280;47304;47.456;19.160;2023-01-30T01:15:05;100819.86;;;-3.76;69.52
61436;BME280;47304;47.456;19.160;2023-01-30T01:17:32;100816.59;;;-3.77;69.52
61436;BME280;47304;47.456;19.160;2023-01-30T01:19:58;100815.64;;;-3.78;69.60
61436;BME280;47304;47.456;19.160;2023-01-30T01:22:25;100815.20;;;-3.77;69.61
61436;BME280;47304;47.456;19.160;2023-01-30T01:24:51;100809.27;;;-3.76;69.65
61436;BME280;47304;47.456;19.160;2023-01-30T01:27:18;100802.59;;;-3.73;69.61
61436;BME280;47304;47.456;19.160;2023-01-30T01:29:44;100803.48;;;-3.70;69.68
61436;BME280;47304;47.456;19.160;2023-01-30T01:32:11;100797.30;;;-3.71;69.73
61436;BME280;47304;47.456;19.160;2023-01-30T01:34:37;100797.94;;;-3.71;69.96
61436;BME280;47304;47.456;19.160;2023-01-30T01:37:04;100800.93;;;-3.70;69.85
61436;BME280;47304;47.456;19.160;2023-01-30T01:39:30;100795.26;;;-3.70;69.89
61436;BME280;47304;47.456;19.160;2023-01-30T01:41:57;100794.48;;;-3.72;69.89
61436;BME280;47304;47.456;19.160;2023-01-30T01:44:23;100798.18;;;-3.72;70.01
61436;BME280;47304;47.456;19.160;2023-01-30T01:46:57;100790.67;;;-3.75;69.96
61436;BME280;47304;47.456;19.160;2023-01-30T01:49:28;100789.19;;;-3.77;70.12
61436;BME280;47304;47.456;19.160;2023-01-30T01:52:21;100781.91;;;-3.78;70.10
61436;BME280;47304;47.456;19.160;2023-01-30T01:54:52;100776.58;;;-3.79;70.08
61436;BME280;47304;47.456;19.160;2023-01-30T01:57:40;100771.32;;;-3.81;70.09
61436;BME280;47304;47.456;19.160;2023-01-30T02:00:14;100767.23;;;-3.83;70.20
61436;BME280;47304;47.456;19.160;2023-01-30T02:02:44;100768.89;;;-3.84;70.30
61436;BME280;47304;47.456;19.160;2023-01-30T02:05:14;100762.70;;;-3.84;70.41
61436;BME280;47304;47.456;19.160;2023-01-30T02:10:18;100752.84;;;-3.83;70.62
61436;BME280;47304;47.456;19.160;2023-01-30T02:12:47;100748.17;;;-3.81;70.46
61436;BME280;47304;47.456;19.160;2023-01-30T02:15:14;100738.36;;;-3.79;70.31
61436;BME280;47304;47.456;19.160;2023-01-30T02:17:42;100735.39;;;-3.78;70.15
61436;BME280;47304;47.456;19.160;2023-01-30T02:20:29;100729.21;;;-3.78;70.09
61436;BME280;47304;47.456;19.160;2023-01-30T02:23:21;100725.93;;;-3.75;69.98
61436;BME280;47304;47.456;19.160;2023-01-30T02:40:11;100708.42;;;-3.84;70.70
61436;BME280;47304;47.456;19.160;2023-01-30T02:48:09;100696.23;;;-3.93;70.96
61436;BME280;47304;47.456;19.160;2023-01-30T02:50:42;100690.61;;;-3.96;71.10
61436;BME280;47304;47.456;19.160;2023-01-30T02:53:10;100685.27;;;-3.96;71.15
61436;BME280;47304;47.456;19.160;2023-01-30T02:55:40;100683.66;;;-3.97;71.20
61436;BME280;47304;47.456;19.160;2023-01-30T02:58:07;100681.41;;;-3.98;71.23
61436;BME280;47304;47.456;19.160;2023-01-30T03:11:51;100672.38;;;-4.00;71.21
61436;BME280;47304;47.456;19.160;2023-01-30T03:14:26;100669.55;;;-3.98;71.08
61436;BME280;47304;47.456;19.160;2023-01-30T03:16:57;100672.17;;;-3.97;71.18
61436;BME280;47304;47.456;19.160;2023-01-30T03:19:27;100670.70;;;-3.97;71.24
61436;BME280;47304;47.456;19.160;2023-01-30T03:21:54;100669.59;;;-3.95;71.27
61436;BME280;47304;47.456;19.160;2023-01-30T03:24:20;100674.57;;;-3.95;71.33
61436;BME280;47304;47.456;19.160;2023-01-30T03:26:57;100672.38;;;-3.94;71.16
61436;BME280;47304;47.456;19.160;2023-01-30T03:29:26;100669.73;;;-3.96;71.18
61436;BME280;47304;47.456;19.160;2023-01-30T03:31:53;100660.23;;;-3.97;71.26
61436;BME280;47304;47.456;19.160;2023-01-30T03:34:19;100658.91;;;-3.99;71.27
61436;BME280;47304;47.456;19.160;2023-01-30T03:36:46;100654.88;;;-4.00;71.33
61436;BME280;47304;47.456;19.160;2023-01-30T03:39:13;100647.91;;;-4.02;71.48
61436;BME280;47304;47.456;19.160;2023-01-30T03:41:39;100649.16;;;-4.04;71.50
61436;BME280;47304;47.456;19.160;2023-01-30T03:44:06;100650.25;;;-4.06;71.56
61436;BME280;47304;47.456;19.160;2023-01-30T03:46:32;100650.77;;;-4.06;71.62
61436;BME280;47304;47.456;19.160;2023-01-30T03:48:59;100646.98;;;-4.03;71.76
61436;BME280;47304;47.456;19.160;2023-01-30T03:51:26;100645.16;;;-4.02;71.69
61436;BME280;47304;47.456;19.160;2023-01-30T03:53:52;100646.77;;;-4.01;71.71
61436;BME280;47304;47.456;19.160;2023-01-30T03:56:19;100653.73;;;-3.99;71.79
61436;BME280;47304;47.456;19.160;2023-01-30T03:58:45;100650.49;;;-3.99;71.83
61436;BME280;47304;47.456;19.160;2023-01-30T04:01:12;100645.60;;;-3.98;71.90
61436;BME280;47304;47.456;19.160;2023-01-30T04:03:38;100637.67;;;-3.99;71.84
61436;BME280;47304;47.456;19.160;2023-01-30T04:06:05;100641.52;;;-4.00;72.02
61436;BME280;47304;47.456;19.160;2023-01-30T04:08:32;100638.58;;;-4.01;72.06
61436;BME280;47304;47.456;19.160;2023-01-30T04:10:59;100633.55;;;-3.99;72.17
61436;BME280;47304;47.456;19.160;2023-01-30T04:13:25;100629.73;;;-4.00;72.17
61436;BME280;47304;47.456;19.160;2023-01-30T04:15:52;100628.29;;;-4.01;72.24
61436;BME280;47304;47.456;19.160;2023-01-30T04:18:18;100626.43;;;-4.01;72.36
61436;BME280;47304;47.456;19.160;2023-01-30T04:20:45;100620.59;;;-4.04;72.32
61436;BME280;47304;47.456;19.160;2023-01-30T04:23:11;100621.92;;;-4.04;72.33
61436;BME280;47304;47.456;19.160;2023-01-30T04:25:38;100619.39;;;-4.07;72.42
61436;BME280;47304;47.456;19.160;2023-01-30T04:28:04;100620.70;;;-4.08;72.47
61436;BME280;47304;47.456;19.160;2023-01-30T04:30:31;100621.11;;;-4.07;72.61
61436;BME280;47304;47.456;19.160;2023-01-30T04:32:57;100616.80;;;-4.04;72.53
61436;BME280;47304;47.456;19.160;2023-01-30T04:35:24;100608.86;;;-4.02;72.59
61436;BME280;47304;47.456;19.160;2023-01-30T04:37:50;100609.16;;;-3.98;72.56
61436;BME280;47304;47.456;19.160;2023-01-30T04:40:17;100605.27;;;-3.94;72.33
61436;BME280;47304;47.456;19.160;2023-01-30T04:42:43;100602.14;;;-3.93;72.25
61436;BME280;47304;47.456;19.160;2023-01-30T04:45:10;100594.66;;;-3.92;72.28
61436;BME280;47304;47.456;19.160;2023-01-30T04:47:36;100588.17;;;-3.91;72.40
61436;BME280;47304;47.456;19.160;2023-01-30T04:50:03;100583.46;;;-3.90;72.36
61436;BME280;47304;47.456;19.160;2023-01-30T04:52:30;100586.77;;;-3.89;72.36
61436;BME280;47304;47.456;19.160;2023-01-30T04:54:56;100583.16;;;-3.89;72.28
61436;BME280;47304;47.456;19.160;2023-01-30T04:57:23;100587.45;;;-3.92;72.31
61436;BME280;47304;47.456;19.160;2023-01-30T04:59:49;100586.04;;;-3.93;72.41
61436;BME280;47304;47.456;19.160;2023-01-30T05:02:16;100584.28;;;-3.93;72.47
61436;BME280;47304;47.456;19.160;2023-01-30T05:04:42;100586.77;;;-3.95;72.37
61436;BME280;47304;47.456;19.160;2023-01-30T05:07:09;100573.52;;;-3.98;72.37
61436;BME280;47304;47.456;19.160;2023-01-30T05:09:35;100577.14;;;-4.01;72.43
61436;BME280;47304;47.456;19.160;2023-01-30T05:12:02;100578.74;;;-4.03;72.63
61436;BME280;47304;47.456;19.160;2023-01-30T05:14:29;100577.61;;;-4.04;72.74
61436;BME280;47304;47.456;19.160;2023-01-30T05:16:55;100578.58;;;-4.05;72.86
61436;BME280;47304;47.456;19.160;2023-01-30T05:19:22;100578.94;;;-4.05;72.81
61436;BME280;47304;47.456;19.160;2023-01-30T05:21:48;100573.48;;;-4.04;72.73
61436;BME280;47304;47.456;19.160;2023-01-30T05:24:15;100575.54;;;-4.05;72.71
61436;BME280;47304;47.456;19.160;2023-01-30T05:26:41;100570.89;;;-4.02;72.73
61436;BME280;47304;47.456;19.160;2023-01-30T05:29:09;100575.36;;;-3.99;72.77
61436;BME280;47304;47.456;19.160;2023-01-30T05:31:35;100569.67;;;-3.97;72.64
61436;BME280;47304;47.456;19.160;2023-01-30T05:34:02;100564.76;;;-3.96;72.59
61436;BME280;47304;47.456;19.160;2023-01-30T05:36:28;100563.98;;;-3.95;72.67
61436;BME280;47304;47.456;19.160;2023-01-30T05:38:55;100562.72;;;-3.93;72.74
61436;BME280;47304;47.456;19.160;2023-01-30T05:41:21;100559.10;;;-3.94;72.72
61436;BME280;47304;47.456;19.160;2023-01-30T05:43:49;100560.79;;;-3.94;72.72
61436;BME280;47304;47.456;19.160;2023-01-30T05:46:16;100557.77;;;-3.93;72.96
61436;BME280;47304;47.456;19.160;2023-01-30T05:48:43;100555.52;;;-3.94;72.88
61436;BME280;47304;47.456;19.160;2023-01-30T05:51:20;100557.16;;;-3.97;72.80
61436;BME280;47304;47.456;19.160;2023-01-30T05:53:47;100555.28;;;-4.00;72.72
61436;BME280;47304;47.456;19.160;2023-01-30T05:56:14;100563.30;;;-4.03;72.80
61436;BME280;47304;47.456;19.160;2023-01-30T05:58:41;100565.00;;;-4.06;72.74
61436;BME280;47304;47.456;19.160;2023-01-30T06:01:11;100565.86;;;-4.09;72.83
61436;BME280;47304;47.456;19.160;2023-01-30T06:03:38;100567.95;;;-4.14;72.77
61436;BME280;47304;47.456;19.160;2023-01-30T06:06:05;100562.75;;;-4.20;72.93
61436;BME280;47304;47.456;19.160;2023-01-30T06:08:32;100565.34;;;-4.26;73.07
61436;BME280;47304;47.456;19.160;2023-01-30T06:11:03;100570.44;;;-4.30;73.21
61436;BME280;47304;47.456;19.160;2023-01-30T06:13:30;100566.77;;;-4.31;73.44
61436;BME280;47304;47.456;19.160;2023-01-30T06:15:57;100566.58;;;-4.28;73.54
61436;BME280;47304;47.456;19.160;2023-01-30T06:18:24;100567.44;;;-4.25;73.50
61436;BME280;47304;47.456;19.160;2023-01-30T06:20:51;100562.18;;;-4.24;73.60
61436;BME280;47304;47.456;19.160;2023-01-30T06:23:19;100565.23;;;-4.22;73.68
61436;BME280;47304;47.456;19.160;2023-01-30T06:25:47;100562.46;;;-4.19;73.73
61436;BME280;47304;47.456;19.160;2023-01-30T06:28:15;100561.85;;;-4.18;73.71
61436;BME280;47304;47.456;19.160;2023-01-30T06:30:42;100564.84;;;-4.20;73.75
61436;BME280;47304;47.456;19.160;2023-01-30T06:33:09;100566.97;;;-4.22;73.77
61436;BME280;47304;47.456;19.160;2023-01-30T06:35:37;100572.95;;;-4.25;73.89
61436;BME280;47304;47.456;19.160;2023-01-30T06:38:05;100572.15;;;-4.24;74.09
61436;BME280;47304;47.456;19.160;2023-01-30T06:40:31;100575.20;;;-4.21;74.18
61436;BME280;47304;47.456;19.160;2023-01-30T06:42:58;100569.38;;;-4.16;74.32
61436;BME280;47304;47.456;19.160;2023-01-30T06:45:25;100558.16;;;-4.12;74.29
61436;BME280;47304;47.456;19.160;2023-01-30T06:47:53;100554.76;;;-4.06;74.24
61436;BME280;47304;47.456;19.160;2023-01-30T06:50:22;100552.70;;;-3.97;74.12
61436;BME280;47304;47.456;19.160;2023-01-30T06:52:49;100552.06;;;-3.88;74.10
61436;BME280;47304;47.456;19.160;2023-01-30T06:55:18;100551.02;;;-3.77;74.02
61436;BME280;47304;47.456;19.160;2023-01-30T06:57:46;100550.55;;;-3.64;73.93
61436;BME280;47304;47.456;19.160;2023-01-30T07:00:17;100549.73;;;-3.55;73.50
61436;BME280;47304;47.456;19.160;2023-01-30T07:02:46;100552.39;;;-3.48;73.31
61436;BME280;47304;47.456;19.160;2023-01-30T07:05:12;100551.05;;;-3.36;73.46
61436;BME280;47304;47.456;19.160;2023-01-30T07:07:39;100545.77;;;-3.23;73.27
61436;BME280;47304;47.456;19.160;2023-01-30T07:10:06;100541.16;;;-3.14;73.07
61436;BME280;47304;47.456;19.160;2023-01-30T07:12:34;100536.57;;;-3.01;72.90
61436;BME280;47304;47.456;19.160;2023-01-30T07:15:02;100531.13;;;-2.88;72.81
61436;BME280;47304;47.456;19.160;2023-01-30T07:17:28;100537.78;;;-2.79;72.39
61436;BME280;47304;47.456;19.160;2023-01-30T07:19:55;100536.12;;;-2.75;72.20
61436;BME280;47304;47.456;19.160;2023-01-30T07:22:21;100534.91;;;-2.66;72.29
61436;BME280;47304;47.456;19.160;2023-01-30T07:24:48;100537.27;;;-2.57;72.18
61436;BME280;47304;47.456;19.160;2023-01-30T07:27:15;100536.81;;;-2.50;71.94
61436;BME280;47304;47.456;19.160;2023-01-30T07:29:41;100535.09;;;-2.44;71.80
61436;BME280;47304;47.456;19.160;2023-01-30T07:32:17;100537.61;;;-2.38;71.98
61436;BME280;47304;47.456;19.160;2023-01-30T07:34:45;100536.55;;;-2.29;71.65
61436;BME280;47304;47.456;19.160;2023-01-30T07:37:12;100536.71;;;-2.20;71.60
61436;BME280;47304;47.456;19.160;2023-01-30T07:39:38;100528.30;;;-2.14;71.38
61436;BME280;47304;47.456;19.160;2023-01-30T07:42:05;100531.39;;;-2.11;71.02
61436;BME280;47304;47.456;19.160;2023-01-30T07:44:32;100533.02;;;-2.09;71.02
61436;BME280;47304;47.456;19.160;2023-01-30T07:46:59;100527.35;;;-2.06;71.09
61436;BME280;47304;47.456;19.160;2023-01-30T07:49:26;100524.40;;;-1.99;71.13
61436;BME280;47304;47.456;19.160;2023-01-30T07:51:52;100522.64;;;-1.94;70.91
61436;BME280;47304;47.456;19.160;2023-01-30T07:54:19;100526.40;;;-1.87;70.80
61436;BME280;47304;47.456;19.160;2023-01-30T07:56:45;100519.99;;;-1.82;70.76
61436;BME280;47304;47.456;19.160;2023-01-30T07:59:12;100509.58;;;-1.74;70.81
61436;BME280;47304;47.456;19.160;2023-01-30T08:01:38;100505.17;;;-1.63;70.64
61436;BME280;47304;47.456;19.160;2023-01-30T08:04:05;100502.90;;;-1.53;70.22
61436;BME280;47304;47.456;19.160;2023-01-30T08:06:31;100510.47;;;-1.42;69.91
61436;BME280;47304;47.456;19.160;2023-01-30T08:08:58;100511.21;;;-1.34;69.60
61436;BME280;47304;47.456;19.160;2023-01-30T08:11:24;100510.05;;;-1.23;69.44
61436;BME280;47304;47.456;19.160;2023-01-30T08:13:51;100506.16;;;-1.15;69.11
61436;BME280;47304;47.456;19.160;2023-01-30T08:16:17;100495.06;;;-1.06;69.00
61436;BME280;47304;47.456;19.160;2023-01-30T08:18:44;100490.00;;;-1.00;68.57
61436;BME280;47304;47.456;19.160;2023-01-30T08:21:10;100483.48;;;-0.97;68.58
61436;BME280;47304;47.456;19.160;2023-01-30T08:23:37;100470.20;;;-0.93;68.53
61436;BME280;47304;47.456;19.160;2023-01-30T08:26:04;100452.34;;;-0.89;68.46
61436;BME280;47304;47.456;19.160;2023-01-30T08:28:31;100443.89;;;-0.90;68.33
61436;BME280;47304;47.456;19.160;2023-01-30T08:30:57;100437.34;;;-0.90;68.49
61436;BME280;47304;47.456;19.160;2023-01-30T08:33:24;100430.77;;;-0.87;68.75
61436;BME280;47304;47.456;19.160;2023-01-30T08:35:50;100426.76;;;-0.85;68.33
61436;BME280;47304;47.456;19.160;2023-01-30T08:38:17;100429.98;;;-0.82;68.46
61436;BME280;47304;47.456;19.160;2023-01-30T08:40:44;100435.04;;;-0.72;68.51
61436;BME280;47304;47.456;19.160;2023-01-30T08:43:10;100435.27;;;-0.60;68.46
61436;BME280;47304;47.456;19.160;2023-01-30T08:45:37;100434.73;;;-0.45;68.30
61436;BME280;47304;47.456;19.160;2023-01-30T08:48:04;100436.31;;;-0.21;68.02
61436;BME280;47304;47.456;19.160;2023-01-30T08:50:32;100438.98;;;0.09;67.64
61436;BME280;47304;47.456;19.160;2023-01-30T08:53:04;100426.09;;;0.38;66.51
61436;BME280;47304;47.456;19.160;2023-01-30T08:55:31;100423.61;;;0.58;66.03
61436;BME280;47304;47.456;19.160;2023-01-30T08:57:57;100421.48;;;0.82;65.72
61436;BME280;47304;47.456;19.160;2023-01-30T09:00:25;100425.56;;;1.03;64.70
61436;BME280;47304;47.456;19.160;2023-01-30T09:02:55;100425.49;;;1.01;64.13
61436;BME280;47304;47.456;19.160;2023-01-30T09:05:22;100431.54;;;1.10;64.22
61436;BME280;47304;47.456;19.160;2023-01-30T09:07:49;100437.16;;;1.08;63.98
61436;BME280;47304;47.456;19.160;2023-01-30T09:10:16;100431.02;;;0.88;63.89
61436;BME280;47304;47.456;19.160;2023-01-30T09:12:44;100435.91;;;0.68;64.16
61436;BME280;47304;47.456;19.160;2023-01-30T09:15:10;100429.45;;;0.49;64.75
61436;BME280;47304;47.456;19.160;2023-01-30T09:17:37;100436.07;;;0.38;65.29
61436;BME280;47304;47.456;19.160;2023-01-30T09:20:05;100428.02;;;0.31;65.61
61436;BME280;47304;47.456;19.160;2023-01-30T09:22:32;100428.75;;;0.23;65.98
61436;BME280;47304;47.456;19.160;2023-01-30T09:24:59;100421.98;;;0.14;66.32
61436;BME280;47304;47.456;19.160;2023-01-30T09:27:25;100417.46;;;0.13;66.72
61436;BME280;47304;47.456;19.160;2023-01-30T09:29:52;100413.52;;;0.18;66.91
61436;BME280;47304;47.456;19.160;2023-01-30T09:32:18;100405.67;;;0.24;66.77
61436;BME280;47304;47.456;19.160;2023-01-30T09:34:45;100399.38;;;0.34;66.67
61436;BME280;47304;47.456;19.160;2023-01-30T09:37:11;100396.64;;;0.35;66.78
61436;BME280;47304;47.456;19.160;2023-01-30T09:39:38;100391.30;;;0.39;66.82
61436;BME280;47304;47.456;19.160;2023-01-30T09:47:12;100370.52;;;0.41;67.10
61436;BME280;47304;47.456;19.160;2023-01-30T09:55:18;100359.00;;;0.20;67.46
61436;BME280;47304;47.456;19.160;2023-01-30T09:57:47;100352.27;;;0.11;67.79
61436;BME280;47304;47.456;19.160;2023-01-30T10:05:18;100335.83;;;0.06;68.48
61436;BME280;47304;47.456;19.160;2023-01-30T10:24:23;100311.60;;;0.20;69.16
61436;BME280;47304;47.456;19.160;2023-01-30T10:26:55;100300.84;;;0.57;68.77
61436;BME280;47304;47.456;19.160;2023-01-30T10:29:28;100291.92;;;1.15;67.94
61436;BME280;47304;47.456;19.160;2023-01-30T10:32:04;100284.48;;;2.15;65.38
61436;BME280;47304;47.456;19.160;2023-01-30T10:34:37;100275.31;;;2.95;64.07
61436;BME280;47304;47.456;19.160;2023-01-30T10:37:09;100267.41;;;3.22;62.13
61436;BME280;47304;47.456;19.160;2023-01-30T10:40:01;100267.08;;;3.29;61.20
61436;BME280;47304;47.456;19.160;2023-01-30T10:42:35;100263.67;;;3.06;60.86
61436;BME280;47304;47.456;19.160;2023-01-30T10:45:36;100253.64;;;2.87;61.14
61436;BME280;47304;47.456;19.160;2023-01-30T10:54:31;100226.97;;;2.34;61.89
61436;BME280;47304;47.456;19.160;2023-01-30T10:57:37;100226.55;;;2.14;62.46
61436;BME280;47304;47.456;19.160;2023-01-30T11:00:14;100221.66;;;2.01;63.15
61436;BME280;47304;47.456;19.160;2023-01-30T11:08:25;100193.59;;;1.72;64.47
61436;BME280;47304;47.456;19.160;2023-01-30T11:10:53;100193.55;;;1.65;64.88
61436;BME280;47304;47.456;19.160;2023-01-30T11:15:50;100189.10;;;1.50;65.61
61436;BME280;47304;47.456;19.160;2023-01-30T11:18:19;100182.68;;;1.45;65.88
61436;BME280;47304;47.456;19.160;2023-01-30T11:21:19;100178.34;;;1.38;66.37
61436;BME280;47304;47.456;19.160;2023-01-30T11:23:50;100169.05;;;1.34;66.79
61436;BME280;47304;47.456;19.160;2023-01-30T11:26:28;100159.89;;;1.29;67.05
61436;BME280;47304;47.456;19.160;2023-01-30T11:29:19;100166.27;;;1.29;67.26
61436;BME280;47304;47.456;19.160;2023-01-30T11:31:50;100162.90;;;1.31;67.33
61436;BME280;47304;47.456;19.160;2023-01-30T11:34:18;100157.42;;;1.32;67.48
61436;BME280;47304;47.456;19.160;2023-01-30T11:36:46;100149.16;;;1.33;67.63
61436;BME280;47304;47.456;19.160;2023-01-30T11:41:54;100135.96;;;1.31;67.65
61436;BME280;47304;47.456;19.160;2023-01-30T11:44:26;100133.56;;;1.26;67.84
61436;BME280;47304;47.456;19.160;2023-01-30T11:46:57;100124.91;;;1.20;68.06
61436;BME280;47304;47.456;19.160;2023-01-30T11:49:32;100113.90;;;1.16;67.99
61436;BME280;47304;47.456;19.160;2023-01-30T11:52:25;100119.46;;;1.17;68.22
61436;BME280;47304;47.456;19.160;2023-01-30T11:55:02;100113.55;;;1.21;68.17
61436;BME280;47304;47.456;19.160;2023-01-30T11:57:39;100104.29;;;1.28;68.31
61436;BME280;47304;47.456;19.160;2023-01-30T12:00:16;100106.48;;;1.32;68.11
61436;BME280;47304;47.456;19.160;2023-01-30T12:02:45;100099.20;;;1.30;68.16
61436;BME280;47304;47.456;19.160;2023-01-30T12:05:33;100096.50;;;1.28;68.11
61436;BME280;47304;47.456;19.160;2023-01-30T12:08:32;100096.19;;;1.23;68.24
61436;BME280;47304;47.456;19.160;2023-01-30T12:13:58;100088.38;;;1.16;68.31
61436;BME280;47304;47.456;19.160;2023-01-30T12:16:44;100089.96;;;1.12;68.40
61436;BME280;47304;47.456;19.160;2023-01-30T12:19:33;100093.42;;;1.07;68.43
61436;BME280;47304;47.456;19.160;2023-01-30T12:22:17;100084.70;;;1.04;68.27
61436;BME280;47304;47.456;19.160;2023-01-30T12:24:57;100077.34;;;1.01;68.37
61436;BME280;47304;47.456;19.160;2023-01-30T12:27:36;100081.58;;;0.98;68.30
61436;BME280;47304;47.456;19.160;2023-01-30T12:32:51;100051.02;;;0.98;68.28
61436;BME280;47304;47.456;19.160;2023-01-30T12:35:27;100031.89;;;0.98;68.29
61436;BME280;47304;47.456;19.160;2023-01-30T12:40:44;100017.05;;;0.98;68.23
61436;BME280;47304;47.456;19.160;2023-01-30T12:46:34;100011.46;;;1.01;68.11
61436;BME280;47304;47.456;19.160;2023-01-30T12:52:28;100015.66;;;1.03;67.37
61436;BME280;47304;47.456;19.160;2023-01-30T12:55:23;100027.46;;;1.05;67.40
61436;BME280;47304;47.456;19.160;2023-01-30T13:03:44;100023.54;;;1.17;67.33
61436;BME280;47304;47.456;19.160;2023-01-30T13:11:46;100011.45;;;1.23;66.92
61436;BME280;47304;47.456;19.160;2023-01-30T13:14:24;100010.05;;;1.28;66.67
61436;BME280;47304;47.456;19.160;2023-01-30T13:17:10;100000.06;;;1.29;66.46
61436;BME280;47304;47.456;19.160;2023-01-30T13:27:39;99963.10;;;1.38;67.00
61436;BME280;47304;47.456;19.160;2023-01-30T13:30:13;99966.83;;;1.36;66.88
61436;BME280;47304;47.456;19.160;2023-01-30T13:32:50;99964.65;;;1.33;67.20
61436;BME280;47304;47.456;19.160;2023-01-30T13:35:22;99961.77;;;1.29;67.34
61436;BME280;47304;47.456;19.160;2023-01-30T13:37:50;99954.98;;;1.27;67.41
61436;BME280;47304;47.456;19.160;2023-01-30T13:40:20;99949.42;;;1.26;67.52
61436;BME280;47304;47.456;19.160;2023-01-30T13:42:53;99947.90;;;1.27;67.58
61436;BME280;47304;47.456;19.160;2023-01-30T13:45:28;99951.98;;;1.30;67.65
61436;BME280;47304;47.456;19.160;2023-01-30T13:54:25;99956.80;;;1.36;67.67
61436;BME280;47304;47.456;19.160;2023-01-30T13:56:48;99949.43;;;1.38;67.47
61436;BME280;47304;47.456;19.160;2023-01-30T13:59:49;99955.47;;;1.37;67.46
61436;BME280;47304;47.456;19.160;2023-01-30T14:02:23;99951.26;;;1.41;67.31
61436;BME280;47304;47.456;19.160;2023-01-30T14:04:52;99957.47;;;1.47;67.24
61436;BME280;47304;47.456;19.160;2023-01-30T14:10:00;99943.05;;;1.56;66.93
61436;BME280;47304;47.456;19.160;2023-01-30T14:12:42;99934.02;;;1.59;66.86
61436;BME280;47304;47.456;19.160;2023-01-30T14:17:58;99936.96;;;1.66;66.60
61436;BME280;47304;47.456;19.160;2023-01-30T14:20:27;99937.26;;;1.70;66.44
61436;BME280;47304;47.456;19.160;2023-01-30T14:23:00;99928.86;;;1.73;66.09
61436;BME280;47304;47.456;19.160;2023-01-30T14:30:46;99948.63;;;1.76;65.45
61436;BME280;47304;47.456;19.160;2023-01-30T14:33:34;99953.61;;;1.75;65.33
61436;BME280;47304;47.456;19.160;2023-01-30T14:38:55;99955.20;;;1.70;65.30
61436;BME280;47304;47.456;19.160;2023-01-30T14:43:50;99948.23;;;1.68;65.46
61436;BME280;47304;47.456;19.160;2023-01-30T14:59:45;99958.27;;;1.51;66.63
61436;BME280;47304;47.456;19.160;2023-01-30T15:02:30;99958.67;;;1.47;66.88
61436;BME280;47304;47.456;19.160;2023-01-30T15:07:48;99952.12;;;1.41;67.26
61436;BME280;47304;47.456;19.160;2023-01-30T15:13:05;99958.96;;;1.39;67.36
61436;BME280;47304;47.456;19.160;2023-01-30T15:21:19;99959.30;;;1.38;67.72
61436;BME280;47304;47.456;19.160;2023-01-30T15:26:27;99952.92;;;1.39;67.79
61436;BME280;47304;47.456;19.160;2023-01-30T15:31:31;99946.80;;;1.36;68.03
61436;BME280;47304;47.456;19.160;2023-01-30T15:33:58;99954.86;;;1.35;67.89
61436;BME280;47304;47.456;19.160;2023-01-30T15:36:29;99956.36;;;1.33;67.94
61436;BME280;47304;47.456;19.160;2023-01-30T15:39:00;99954.42;;;1.32;67.99
61436;BME280;47304;47.456;19.160;2023-01-30T15:41:30;99954.20;;;1.30;67.99
61436;BME280;47304;47.456;19.160;2023-01-30T15:49:56;99958.79;;;1.28;67.98
61436;BME280;47304;47.456;19.160;2023-01-30T15:52:39;99961.86;;;1.26;68.20
61436;BME280;47304;47.456;19.160;2023-01-30T15:57:49;99962.23;;;1.16;68.58